Terminal Aerodrome Forecast
Issued by NWS Twin Cities, MN

Home | Current Version | Previous Version | Graphics & Text | Print | Product List | Glossary On
Versions: 1 2 3 4 5 6 7 8 9 10 11 12 13 14 15 16 17 18 19 20
000
FTUS43 KMPX 212214 AAB
TAFSTC
TAF AMD
KSTC 212214Z 2122/2218 08009KT P6SM VCTS SCT025CB OVC035
      TEMPO 2122/2124 3SM SHRA BKN025
     FM220000 07010KT 4SM -SHRA OVC025
      TEMPO 2200/2204 TSRA OVC015CB
     FM220700 05006KT 4SM -SHRA BR OVC015=

USA.gov is the U.S. government's official web portal to all federal, state and local government web resources and services.